Decoded Metar for KMCJ ( in _UNIDENTIFIED) (IATA:N/A) | Meteo·Mobile Aviation Weather
aviador You're here:

KMCJ Decoded Metar

in _UNIDENTIFIED
Report Time2019-02-18 09:55:00
UTC Time2019-02-18 10:03:35
Flight Rules vfr VFR
Wind030° at 11 kt
W.Rank030° ranks 18
Current wind is above 030° avg. (7.8)
Visibility9999 m
Phenomena:N/A
Clouds:Overcast 060 Hf
Expected CloudBase > 2,800 ft AGL from Temp-Dew spread
Ceiling6,000 ft
Temp09°C (ISA -6)
Dew Point02°C (62% RH)
AAT3.4°C
QNH1018 hPa
Density Alt-512 ft
Elevation226 ft
Report Wrong Elevation
Raw Report
KMCJ 180955Z AUTO 03011KT 10SM OVC060 09/02 A3006 RMK A01=

Extra information for KMCJ:More info

Metar Taf Metar & Taf Last 4 Metars F.Rules Stats Wind Profile Meteogram Temp Stats Metar ALERT Operation Metar Decoded Social comments